Time;durP1;ratioP1;P1;durP2;ratioP2;P2;SDS_P1;SDS_P2;PMS_P1;PMS_P2;Temp;Humidity;BMP_temperature;BMP_pressure;BME280_temperature;BME280_humidity;BME280_pressure;Samples;Min_cycle;Max_cycle;Signal;HPM_P1;HPM_P2
2023/05/19 00:00:05;;;;;;;25.00;8.63;;;9.50;50.30;;;;;;5034273;28;20040;-57
2023/05/19 00:02:32;;;;;;;22.35;9.43;;;9.40;50.40;;;;;;5034018;28;20381;-57
2023/05/19 00:05:00;;;;;;;23.58;8.82;;;9.50;51.10;;;;;;5033844;28;20021;-55
2023/05/19 00:07:30;;;;;;;18.10;8.57;;;9.40;55.00;;;;;;5014423;28;20034;-57
2023/05/19 00:09:56;;;;;;;22.15;8.60;;;9.40;55.70;;;;;;5014192;28;20029;-59
2023/05/19 00:12:22;;;;;;;24.70;9.40;;;9.40;55.20;;;;;;5032033;28;20079;-57
2023/05/19 00:14:48;;;;;;;18.20;8.43;;;9.30;55.90;;;;;;5032454;28;20405;-57
2023/05/19 00:17:15;;;;;;;26.65;8.80;;;9.40;60.40;;;;;;5033829;28;20033;-58
2023/05/19 00:19:43;;;;;;;24.27;9.10;;;9.30;61.30;;;;;;5033624;28;20033;-55
2023/05/19 00:22:09;;;;;;;19.85;9.00;;;9.30;64.40;;;;;;5033921;28;20034;-58
2023/05/19 00:24:35;;;;;;;17.30;8.85;;;9.30;65.40;;;;;;5033309;28;20412;-58
2023/05/19 00:27:01;;;;;;;19.40;8.70;;;9.30;64.60;;;;;;5033706;28;20034;-57
2023/05/19 00:29:27;;;;;;;15.15;8.98;;;9.30;64.00;;;;;;5032712;28;20025;-58
2023/05/19 00:31:53;;;;;;;22.50;8.50;;;9.30;64.50;;;;;;5033524;28;20029;-58
2023/05/19 00:34:18;;;;;;;15.05;8.27;;;9.30;68.80;;;;;;5033305;28;20024;-57
2023/05/19 00:36:44;;;;;;;18.30;10.13;;;9.30;66.60;;;;;;5033516;28;20033;-57
2023/05/19 00:39:10;;;;;;;17.17;9.13;;;9.20;69.50;;;;;;5032690;28;20533;-58
2023/05/19 00:41:35;;;;;;;16.13;8.43;;;9.30;67.30;;;;;;5033211;28;20116;-57
2023/05/19 00:44:01;;;;;;;14.75;8.30;;;9.30;70.20;;;;;;5033337;28;20034;-58
2023/05/19 00:46:27;;;;;;;18.88;8.65;;;9.30;68.70;;;;;;5033511;28;20036;-57
2023/05/19 00:48:52;;;;;;;23.10;9.65;;;9.30;70.40;;;;;;5031479;28;20025;-57
2023/05/19 00:51:18;;;;;;;35.47;10.77;;;9.30;73.50;;;;;;5033353;28;20029;-54
2023/05/19 00:53:49;;;;;;;19.58;9.38;;;9.20;79.20;;;;;;5032452;28;20033;-55
2023/05/19 00:56:16;;;;;;;18.80;9.80;;;9.10;80.70;;;;;;5024670;28;20025;-55
2023/05/19 00:58:42;;;;;;;16.33;9.25;;;9.10;83.00;;;;;;5032650;28;20025;-58
2023/05/19 01:01:08;;;;;;;18.70;10.77;;;9.00;86.30;;;;;;5033050;28;20056;-57
2023/05/19 01:03:34;;;;;;;22.67;9.98;;;9.00;88.00;;;;;;5032899;28;20080;-57
2023/05/19 01:06:03;;;;;;;21.00;10.38;;;9.10;89.70;;;;;;5031501;28;20076;-56
2023/05/19 01:08:31;;;;;;;16.55;10.18;;;9.10;90.40;;;;;;5032694;28;20026;-56
2023/05/19 01:10:58;;;;;;;22.02;10.70;;;9.10;90.70;;;;;;5032913;28;20565;-56
2023/05/19 01:13:25;;;;;;;19.10;9.48;;;9.10;90.90;;;;;;5032841;28;20044;-59
2023/05/19 01:16:13;;;;;;;18.77;9.63;;;9.10;89.30;;;;;;5032797;28;20056;-57
2023/05/19 01:18:57;;;;;;;33.45;11.43;;;9.10;87.00;;;;;;5009028;28;20064;-57
2023/05/19 01:21:43;;;;;;;16.63;9.98;;;9.10;89.60;;;;;;5032312;28;20421;-58
2023/05/19 01:24:16;;;;;;;22.25;9.32;;;9.10;90.60;;;;;;5032514;28;20025;-54
2023/05/19 01:26:48;;;;;;;;;;;9.10;90.00;;;;;;5033057;28;20132;-55
2023/05/19 01:29:28;;;;;;;23.88;10.75;;;9.10;90.30;;;;;;5032465;28;19909;-57
2023/05/19 01:31:58;;;;;;;19.52;9.25;;;9.10;90.20;;;;;;5030859;28;20041;-54
2023/05/19 01:34:25;;;;;;;22.40;10.85;;;9.10;90.20;;;;;;5032819;28;20520;-58
2023/05/19 01:36:54;;;;;;;15.35;9.15;;;9.10;89.60;;;;;;5030990;28;20060;-57
2023/05/19 01:39:21;;;;;;;25.05;10.27;;;9.10;90.00;;;;;;5032561;28;20388;-56
2023/05/19 01:41:47;;;;;;;23.73;10.45;;;9.10;90.20;;;;;;5031929;28;20029;-57
2023/05/19 01:44:14;;;;;;;23.25;11.25;;;9.10;89.90;;;;;;5032529;28;20445;-54
2023/05/19 01:46:40;;;;;;;22.30;11.45;;;9.20;87.80;;;;;;5032196;28;20025;-58
2023/05/19 01:49:07;;;;;;;19.90;10.52;;;9.10;89.60;;;;;;5031911;28;20108;-57
2023/05/19 01:51:33;;;;;;;19.42;10.02;;;9.10;90.30;;;;;;5032198;28;20029;-58
2023/05/19 01:53:58;;;;;;;28.52;11.70;;;9.10;89.50;;;;;;5032206;28;20058;-55
2023/05/19 01:56:48;;;;;;;15.18;9.77;;;9.00;90.60;;;;;;5031827;28;20018;-58
2023/05/19 01:59:34;;;;;;;22.98;10.48;;;9.00;90.70;;;;;;5031743;28;20638;-58
2023/05/19 02:02:07;;;;;;;17.85;9.32;;;9.00;90.40;;;;;;5031624;28;20025;-58
2023/05/19 02:04:42;;;;;;;33.30;11.10;;;9.00;91.10;;;;;;5031977;28;20021;-57
2023/05/19 02:07:36;;;;;;;21.73;10.68;;;8.90;90.90;;;;;;5031787;28;20116;-57
2023/05/19 02:10:10;;;;;;;21.73;9.60;;;9.00;90.90;;;;;;5032042;28;20021;-57
2023/05/19 02:12:38;;;;;;;26.38;9.52;;;9.00;91.00;;;;;;5031680;28;20120;-56
2023/05/19 02:15:13;;;;;;;23.58;9.82;;;9.00;88.00;;;;;;5031833;28;20021;-56
2023/05/19 02:17:46;;;;;;;23.63;9.90;;;9.00;90.00;;;;;;5031395;28;20029;-57
2023/05/19 02:20:12;;;;;;;19.58;10.25;;;9.00;89.40;;;;;;5030466;28;20052;-55
2023/05/19 02:22:38;;;;;;;16.73;9.32;;;8.90;90.10;;;;;;5031974;28;20400;-58
2023/05/19 02:25:04;;;;;;;29.08;11.18;;;9.00;88.30;;;;;;5031777;28;20101;-58
2023/05/19 02:27:30;;;;;;;20.98;10.48;;;9.00;87.30;;;;;;5031432;28;20117;-58
2023/05/19 02:29:56;;;;;;;18.08;10.10;;;9.00;87.60;;;;;;5030364;28;20060;-58
2023/05/19 02:32:21;;;;;;;24.48;9.98;;;9.00;85.70;;;;;;5031532;28;20030;-57
2023/05/19 02:34:47;;;;;;;25.40;9.90;;;9.00;85.70;;;;;;5031592;28;20076;-55
2023/05/19 02:37:14;;;;;;;22.92;10.43;;;9.00;84.80;;;;;;5031401;28;20033;-58
2023/05/19 02:39:41;;;;;;;20.42;9.10;;;9.00;85.20;;;;;;5031271;28;20061;-58
2023/05/19 02:42:06;;;;;;;25.35;10.32;;;8.90;85.60;;;;;;5031496;28;20028;-57
2023/05/19 02:44:32;;;;;;;24.63;11.57;;;8.90;87.00;;;;;;5031510;28;20021;-56
2023/05/19 02:46:58;;;;;;;21.70;10.38;;;8.90;86.80;;;;;;5031124;28;20060;-57
2023/05/19 02:49:23;;;;;;;22.90;10.23;;;8.90;88.10;;;;;;5031589;28;20097;-56
2023/05/19 02:51:49;;;;;;;16.60;8.85;;;8.90;86.40;;;;;;5031325;28;20029;-56
2023/05/19 02:54:15;;;;;;;30.02;10.77;;;9.00;83.60;;;;;;5031365;28;20097;-57
2023/05/19 02:56:40;;;;;;;16.52;10.02;;;8.90;85.30;;;;;;5031089;28;20025;-57
2023/05/19 02:59:06;;;;;;;18.65;9.93;;;8.90;84.00;;;;;;5031456;28;20021;-55
2023/05/19 03:01:32;;;;;;;25.25;10.85;;;8.80;86.90;;;;;;5030657;28;20050;-58
2023/05/19 03:03:58;;;;;;;16.02;10.23;;;8.90;87.00;;;;;;5035260;28;20030;-54
2023/05/19 03:06:23;;;;;;;24.52;11.25;;;8.80;86.20;;;;;;5033781;28;20022;-55
2023/05/19 03:08:49;;;;;;;20.70;11.23;;;8.80;87.80;;;;;;5035118;28;20057;-56
2023/05/19 03:11:15;;;;;;;26.90;12.15;;;8.80;87.80;;;;;;5033934;28;20026;-56
2023/05/19 03:13:41;;;;;;;20.27;11.13;;;8.70;88.60;;;;;;5034944;28;20041;-57
2023/05/19 03:16:07;;;;;;;20.55;10.55;;;8.70;89.90;;;;;;5035024;28;20034;-57
2023/05/19 03:18:33;;;;;;;21.05;11.80;;;8.70;90.00;;;;;;5035107;28;20028;-56
2023/05/19 03:20:59;;;;;;;21.20;10.73;;;8.70;89.60;;;;;;5034778;28;20037;-56
2023/05/19 03:23:26;;;;;;;23.25;11.70;;;8.70;90.90;;;;;;5035086;28;20030;-57
2023/05/19 03:25:55;;;;;;;20.10;11.02;;;8.70;90.60;;;;;;5034607;28;20393;-55
2023/05/19 03:28:22;;;;;;;20.48;10.48;;;8.60;90.30;;;;;;5034851;28;20083;-57
2023/05/19 03:30:49;;;;;;;24.52;11.02;;;8.60;89.90;;;;;;5035015;28;20116;-56
2023/05/19 03:33:15;;;;;;;25.98;11.40;;;8.60;90.80;;;;;;5034614;28;20030;-57
2023/05/19 03:35:41;;;;;;;31.58;11.40;;;8.60;91.00;;;;;;5034499;28;20025;-57
2023/05/19 03:38:06;;;;;;;22.88;11.10;;;8.60;90.60;;;;;;5034762;28;20108;-54
2023/05/19 03:40:32;;;;;;;21.60;11.68;;;8.60;90.70;;;;;;5033267;28;20578;-56
2023/05/19 03:42:59;;;;;;;18.50;11.98;;;8.60;90.20;;;;;;5034330;28;20036;-56
2023/05/19 03:45:25;;;;;;;17.55;11.40;;;8.60;90.70;;;;;;5034517;28;20573;-58
2023/05/19 03:47:51;;;;;;;23.92;11.27;;;8.60;90.40;;;;;;5034349;28;20026;-57
2023/05/19 03:50:16;;;;;;;25.08;11.18;;;8.60;90.10;;;;;;5034458;28;20396;-56
2023/05/19 03:52:45;;;;;;;21.17;12.13;;;8.60;88.70;;;;;;5034030;28;20112;-56
2023/05/19 03:55:12;;;;;;;28.30;11.85;;;8.60;88.70;;;;;;5033773;28;20447;-57
2023/05/19 03:57:40;;;;;;;24.85;13.05;;;8.60;88.70;;;;;;5032608;28;20080;-53
2023/05/19 04:00:06;;;;;;;17.13;11.30;;;8.50;90.50;;;;;;5034430;28;20369;-58
2023/05/19 04:02:50;;;;;;;18.08;11.50;;;8.50;90.80;;;;;;5034232;28;20108;-58
2023/05/19 04:05:16;;;;;;;23.05;11.65;;;8.60;91.10;;;;;;5034017;28;20033;-58
2023/05/19 04:07:42;;;;;;;20.88;11.25;;;8.60;90.30;;;;;;5033934;28;20404;-55
2023/05/19 04:10:08;;;;;;;26.05;11.80;;;8.70;90.20;;;;;;5033095;28;20033;-53
2023/05/19 04:12:33;;;;;;;23.30;11.82;;;8.60;90.80;;;;;;5033629;28;20036;-54
2023/05/19 04:14:59;;;;;;;20.20;12.15;;;8.70;90.00;;;;;;5033168;28;20021;-57
2023/05/19 04:17:25;;;;;;;21.48;11.55;;;8.70;89.10;;;;;;5032647;28;20091;-56
2023/05/19 04:19:52;;;;;;;21.25;11.60;;;8.80;88.50;;;;;;5033655;28;20025;-56
2023/05/19 04:22:19;;;;;;;26.38;12.18;;;8.80;82.90;;;;;;5033991;28;20369;-54
2023/05/19 04:24:45;;;;;;;21.50;12.15;;;8.80;83.50;;;;;;5033455;28;20029;-58
2023/05/19 04:27:11;;;;;;;28.27;13.00;;;8.80;87.80;;;;;;5034005;28;20536;-58
2023/05/19 04:29:37;;;;;;;23.45;11.88;;;8.80;85.00;;;;;;5033929;28;20024;-57
2023/05/19 04:32:06;;;;;;;23.50;12.25;;;8.90;85.70;;;;;;5033912;28;20037;-56
2023/05/19 04:34:39;;;;;;;23.35;11.32;;;8.90;83.90;;;;;;5033595;28;20469;-57
2023/05/19 04:37:06;;;;;;;21.23;13.15;;;9.00;81.90;;;;;;5033956;28;20104;-57
2023/05/19 04:39:31;;;;;;;14.80;11.75;;;9.00;83.10;;;;;;5033702;28;20479;-57
2023/05/19 04:41:57;;;;;;;25.58;12.23;;;9.00;84.00;;;;;;5033646;28;20120;-58
2023/05/19 04:44:23;;;;;;;31.50;11.35;;;9.20;84.70;;;;;;5032078;28;20477;-58
2023/05/19 04:46:48;;;;;;;20.23;12.15;;;9.20;82.50;;;;;;5033402;28;20030;-58
2023/05/19 04:49:14;;;;;;;17.52;11.48;;;9.30;79.50;;;;;;5033301;28;20026;-56
2023/05/19 04:51:40;;;;;;;26.50;12.13;;;9.30;78.80;;;;;;5033091;28;20025;-57
2023/05/19 04:54:07;;;;;;;21.05;11.63;;;9.20;77.20;;;;;;5033307;28;20025;-53
2023/05/19 04:56:32;;;;;;;18.58;11.07;;;9.30;79.80;;;;;;5013351;28;20080;-56
2023/05/19 04:58:58;;;;;;;21.75;11.80;;;9.30;80.10;;;;;;5013284;28;20026;-56
2023/05/19 05:01:24;;;;;;;23.48;12.23;;;9.30;79.80;;;;;;5013410;28;20026;-54
2023/05/19 05:03:54;;;;;;;25.45;12.45;;;9.40;73.60;;;;;;5013122;28;20026;-55
2023/05/19 05:06:21;;;;;;;28.90;11.65;;;9.50;77.90;;;;;;5030926;28;20040;-58
2023/05/19 05:08:47;;;;;;;19.98;12.43;;;9.50;69.90;;;;;;5032659;28;20056;-57
2023/05/19 05:11:13;;;;;;;25.48;12.05;;;9.60;67.10;;;;;;5030768;28;20029;-57
2023/05/19 05:13:39;;;;;;;17.25;11.35;;;9.60;69.10;;;;;;5031044;28;20052;-56
2023/05/19 05:16:07;;;;;;;18.25;10.45;;;9.70;61.90;;;;;;5032733;28;20084;-56
2023/05/19 05:18:33;;;;;;;22.65;12.50;;;9.70;58.00;;;;;;5032543;28;20022;-55
2023/05/19 05:21:00;;;;;;;23.48;11.38;;;9.80;50.40;;;;;;5032347;28;20045;-58
2023/05/19 05:23:26;;;;;;;20.40;11.43;;;9.70;54.40;;;;;;5032358;28;20660;-54
2023/05/19 05:25:52;;;;;;;20.35;12.35;;;9.70;55.20;;;;;;5031610;28;20065;-56
2023/05/19 05:28:18;;;;;;;20.02;12.40;;;9.70;61.10;;;;;;5032345;28;20021;-58
2023/05/19 05:30:44;;;;;;;17.73;10.88;;;9.80;59.60;;;;;;5032240;28;20025;-57
2023/05/19 05:33:10;;;;;;;17.33;10.13;;;9.90;59.20;;;;;;5032456;28;20033;-57
2023/05/19 05:35:36;;;;;;;18.90;11.05;;;10.10;45.10;;;;;;5030884;28;20568;-56
2023/05/19 05:38:02;;;;;;;29.17;10.40;;;10.00;41.20;;;;;;5032278;28;20112;-58
2023/05/19 05:40:28;;;;;;;19.73;10.98;;;10.10;34.10;;;;;;5032994;28;20578;-57
2023/05/19 05:42:59;;;;;;;21.88;11.82;;;10.10;28.50;;;;;;5032046;28;20037;-57
2023/05/19 05:45:25;;;;;;;25.17;12.02;;;10.20;32.10;;;;;;5032293;28;20057;-57
2023/05/19 05:47:51;;;;;;;15.35;10.55;;;10.10;28.80;;;;;;5031974;28;20085;-57
2023/05/19 05:50:17;;;;;;;27.88;10.63;;;10.20;26.50;;;;;;5032137;28;20022;-57
2023/05/19 05:52:46;;;;;;;24.02;11.55;;;10.10;34.20;;;;;;5031284;28;20053;-57
2023/05/19 05:55:13;;;;;;;25.83;12.50;;;10.10;35.70;;;;;;5031442;28;20441;-57
2023/05/19 05:57:42;;;;;;;27.67;10.93;;;10.20;34.30;;;;;;5031517;28;20033;-56
2023/05/19 06:00:14;;;;;;;22.50;10.90;;;10.20;30.70;;;;;;5031805;28;20013;-57
2023/05/19 06:02:50;;;;;;;19.95;11.45;;;10.30;30.40;;;;;;5030881;28;20435;-57
2023/05/19 06:05:17;;;;;;;21.23;10.82;;;10.40;18.00;;;;;;5030714;28;20049;-58
2023/05/19 06:07:43;;;;;;;19.92;12.30;;;10.30;14.70;;;;;;5030606;28;20376;-58
2023/05/19 06:10:09;;;;;;;20.80;11.02;;;10.40;10.30;;;;;;5031477;28;20033;-56
2023/05/19 06:12:38;;;;;;;20.50;10.73;;;10.40;27.70;;;;;;5030243;28;20029;-57
2023/05/19 06:15:05;;;;;;;17.35;11.98;;;10.60;10.50;;;;;;5031844;28;20041;-55
2023/05/19 06:17:30;;;;;;;23.60;11.23;;;10.60;2.70;;;;;;5031360;28;20053;-53
2023/05/19 06:19:56;;;;;;;18.85;10.90;;;10.60;1.00;;;;;;5031290;28;20037;-55
2023/05/19 06:22:22;;;;;;;21.50;11.38;;;10.70;1.00;;;;;;5031352;28;20726;-54
2023/05/19 06:24:47;;;;;;;19.15;12.57;;;10.90;1.80;;;;;;5031159;28;20028;-59
2023/05/19 06:27:13;;;;;;;17.80;12.10;;;10.80;1.00;;;;;;5031416;28;20025;-57
2023/05/19 06:29:39;;;;;;;30.65;12.43;;;10.70;1.00;;;;;;5031090;28;20013;-57
2023/05/19 06:32:04;;;;;;;20.80;12.55;;;10.70;1.00;;;;;;5031519;28;20041;-56
2023/05/19 06:34:31;;;;;;;24.05;12.95;;;10.70;1.00;;;;;;5031116;28;20037;-57
2023/05/19 06:36:56;;;;;;;18.27;13.10;;;10.90;1.00;;;;;;5030527;28;20529;-58
2023/05/19 06:39:23;;;;;;;23.75;12.07;;;10.80;1.00;;;;;;5031445;28;20171;-54
2023/05/19 06:41:49;;;;;;;26.20;11.90;;;11.00;1.00;;;;;;5031157;28;20029;-58
2023/05/19 06:44:14;;;;;;;16.98;11.02;;;11.20;1.00;;;;;;5031225;28;20033;-55
2023/05/19 06:46:40;;;;;;;24.52;11.77;;;11.00;1.00;;;;;;5030415;28;20034;-58
2023/05/19 06:49:06;;;;;;;22.58;11.73;;;11.00;1.00;;;;;;5030164;28;20496;-56
2023/05/19 06:51:31;;;;;;;19.05;12.25;;;10.90;1.00;;;;;;5029199;28;20025;-56
2023/05/19 06:53:57;;;;;;;20.63;11.35;;;10.80;1.00;;;;;;5029574;28;20040;-55
2023/05/19 06:56:23;;;;;;;14.75;11.88;;;10.70;1.00;;;;;;5029259;28;20532;-57
2023/05/19 06:58:48;;;;;;;29.00;12.40;;;10.90;1.00;;;;;;5029047;28;20172;-58
2023/05/19 07:01:14;;;;;;;22.98;10.50;;;11.10;1.00;;;;;;5029021;28;20041;-56
2023/05/19 07:03:40;;;;;;;17.70;11.10;;;11.30;1.00;;;;;;5029682;28;20377;-54
2023/05/19 07:06:06;;;;;;;23.05;11.60;;;11.10;1.00;;;;;;5029893;28;20539;-55
2023/05/19 07:08:32;;;;;;;19.77;11.70;;;11.20;1.00;;;;;;5029420;28;20119;-57
2023/05/19 07:10:57;;;;;;;18.73;10.60;;;11.10;1.00;;;;;;5027937;28;20068;-56
2023/05/19 07:13:23;;;;;;;28.45;11.75;;;11.00;1.00;;;;;;5028534;28;20036;-57
2023/05/19 07:15:51;;;;;;;23.00;11.65;;;11.00;1.00;;;;;;5029240;28;20033;-57
2023/05/19 07:18:16;;;;;;;30.60;12.23;;;10.80;1.00;;;;;;5029492;28;20104;-56
2023/05/19 07:20:42;;;;;;;17.58;11.98;;;10.90;1.00;;;;;;5028733;28;20552;-58
2023/05/19 07:23:07;;;;;;;23.70;11.80;;;11.00;1.00;;;;;;5027811;28;20026;-59
2023/05/19 07:25:33;;;;;;;18.23;10.65;;;11.00;1.00;;;;;;5029658;28;20017;-57
2023/05/19 07:27:59;;;;;;;14.73;10.27;;;11.10;1.00;;;;;;5030006;28;20053;-58
2023/05/19 07:30:27;;;;;;;16.08;11.68;;;11.20;1.00;;;;;;5029926;28;20022;-58
2023/05/19 07:32:53;;;;;;;16.98;11.35;;;11.20;1.00;;;;;;5029647;28;20034;-57
2023/05/19 07:35:21;;;;;;;15.35;10.75;;;11.40;1.00;;;;;;5029600;28;20021;-56
2023/05/19 07:37:47;;;;;;;26.45;13.55;;;11.30;1.00;;;;;;5029025;28;20104;-55
2023/05/19 07:40:13;;;;;;;22.77;11.65;;;11.20;1.00;;;;;;5029831;28;20025;-55
2023/05/19 07:42:40;;;;;;;19.83;12.40;;;11.10;1.00;;;;;;5029593;28;20056;-57
2023/05/19 07:45:06;;;;;;;18.45;12.50;;;11.20;1.00;;;;;;5028476;28;20098;-57
2023/05/19 07:47:32;;;;;;;22.63;11.85;;;11.20;1.00;;;;;;5030226;28;20063;-58
2023/05/19 07:49:57;;;;;;;21.20;12.77;;;11.00;1.00;;;;;;5033037;28;20449;-57
2023/05/19 07:52:23;;;;;;;18.23;11.55;;;10.90;1.00;;;;;;5031670;28;20025;-58
2023/05/19 07:54:49;;;;;;;20.27;12.60;;;11.00;1.00;;;;;;5032638;28;20030;-57
2023/05/19 07:57:14;;;;;;;20.13;12.88;;;11.10;1.00;;;;;;5033180;28;20087;-58
2023/05/19 07:59:40;;;;;;;26.95;12.07;;;11.10;1.00;;;;;;5032988;28;20029;-58
2023/05/19 08:02:06;;;;;;;16.25;11.43;;;11.20;1.00;;;;;;5031383;28;20036;-56
2023/05/19 08:04:32;;;;;;;21.63;11.20;;;11.20;1.00;;;;;;5032845;28;20439;-57
2023/05/19 08:06:58;;;;;;;28.23;12.95;;;11.10;1.00;;;;;;5033122;28;20125;-58
2023/05/19 08:09:24;;;;;;;41.55;25.17;;;11.20;1.00;;;;;;5033020;28;20018;-57
2023/05/19 08:11:49;;;;;;;17.17;12.63;;;11.30;1.00;;;;;;5032489;28;20407;-59
2023/05/19 08:14:15;;;;;;;24.17;13.38;;;11.40;1.00;;;;;;5032843;28;20021;-58
2023/05/19 08:16:41;;;;;;;23.50;14.73;;;11.50;1.00;;;;;;5032594;28;20079;-57
2023/05/19 08:19:08;;;;;;;27.75;15.23;;;11.60;1.00;;;;;;5032526;28;20021;-58
2023/05/19 08:21:34;;;;;;;21.55;13.13;;;11.40;1.00;;;;;;5032264;28;20056;-57
2023/05/19 08:24:00;;;;;;;26.75;12.85;;;11.50;1.00;;;;;;5032557;28;20017;-55
2023/05/19 08:26:27;;;;;;;23.17;14.98;;;11.60;1.00;;;;;;5032923;28;20036;-56
2023/05/19 08:28:52;;;;;;;23.58;13.82;;;11.60;1.00;;;;;;5032160;28;20022;-56
2023/05/19 08:31:18;;;;;;;22.42;14.38;;;11.80;1.00;;;;;;5032679;28;20018;-57
2023/05/19 08:33:44;;;;;;;24.00;13.45;;;11.80;1.00;;;;;;5032250;28;20465;-58
2023/05/19 08:36:10;;;;;;;24.20;15.02;;;11.60;1.00;;;;;;5032404;28;20026;-56
2023/05/19 08:38:36;;;;;;;18.33;12.95;;;11.70;1.00;;;;;;5030544;28;20049;-57
2023/05/19 08:41:01;;;;;;;19.52;12.85;;;11.60;1.00;;;;;;5032267;28;20056;-56
2023/05/19 08:43:27;;;;;;;21.95;13.32;;;11.70;1.00;;;;;;5032200;28;20030;-57
2023/05/19 08:45:54;;;;;;;23.95;13.90;;;11.80;1.00;;;;;;5031689;28;20101;-56
2023/05/19 08:48:21;;;;;;;20.40;13.77;;;11.70;1.00;;;;;;5032067;28;20474;-57
2023/05/19 08:51:02;;;;;;;22.92;13.00;;;11.90;1.00;;;;;;5031789;28;20056;-57
2023/05/19 08:53:35;;;;;;;20.90;13.07;;;11.80;1.00;;;;;;5030705;28;20465;-54
2023/05/19 08:56:10;;;;;;;18.35;12.75;;;11.90;1.00;;;;;;5032070;28;20030;-57
2023/05/19 08:58:39;;;;;;;26.95;14.07;;;11.80;1.00;;;;;;5030949;28;20501;-58
2023/05/19 09:01:06;;;;;;;21.50;14.32;;;11.90;1.00;;;;;;5030719;28;20032;-58
2023/05/19 09:03:37;;;;;;;17.65;13.55;;;11.90;1.00;;;;;;5031588;28;20532;-58
2023/05/19 09:06:11;;;;;;;21.00;13.13;;;11.90;1.00;;;;;;5010806;28;20547;-57
2023/05/19 09:08:41;;;;;;;24.63;13.25;;;12.10;1.00;;;;;;5012507;28;20464;-57
2023/05/19 09:11:08;;;;;;;28.08;14.82;;;12.00;1.00;;;;;;5031231;28;20022;-58
2023/05/19 09:13:34;;;;;;;21.95;13.77;;;12.00;1.00;;;;;;5031521;28;20021;-57
2023/05/19 09:16:00;;;;;;;18.70;13.68;;;11.90;1.00;;;;;;5031330;28;20044;-57
2023/05/19 09:18:26;;;;;;;22.55;14.50;;;11.90;1.00;;;;;;5031915;28;20029;-56
2023/05/19 09:21:01;;;;;;;23.48;14.07;;;12.00;1.00;;;;;;5029895;28;20559;-57
2023/05/19 09:23:32;;;;;;;26.10;14.80;;;11.80;1.00;;;;;;5030911;28;20026;-58
2023/05/19 09:26:05;;;;;;;22.08;14.45;;;11.80;1.00;;;;;;5031415;28;20116;-57
2023/05/19 09:28:32;;;;;;;;;;;12.10;1.00;;;;;;5030724;28;20099;-57
2023/05/19 09:31:08;;;;;;;19.40;13.45;;;12.60;1.00;;;;;;5031219;28;19951;-57
2023/05/19 09:33:39;;;;;;;21.83;13.65;;;13.00;1.00;;;;;;5031921;28;20036;-58
2023/05/19 09:36:07;;;;;;;17.38;13.43;;;13.40;99.90;;;;;;5030779;28;20244;-57
2023/05/19 09:38:34;;;;;;;15.18;12.68;;;13.40;49.00;;;;;;5031519;28;20431;-57
2023/05/19 09:41:00;;;;;;;16.50;12.50;;;13.10;19.00;;;;;;5029229;28;20040;-58
2023/05/19 09:43:31;;;;;;;18.95;13.48;;;13.10;99.90;;;;;;5031319;28;20029;-58
2023/05/19 09:46:08;;;;;;;18.90;13.85;;;13.00;99.90;;;;;;5030708;28;20037;-58
2023/05/19 09:48:35;;;;;;;15.93;12.88;;;12.90;99.90;;;;;;5031113;28;20477;-57
2023/05/19 09:51:01;;;;;;;17.13;12.32;;;12.70;99.90;;;;;;5030924;28;20029;-54
2023/05/19 09:53:29;;;;;;;19.05;12.10;;;12.80;99.90;;;;;;5030772;28;20029;-54
2023/05/19 09:55:58;;;;;;;20.48;15.10;;;13.10;99.90;;;;;;5031836;28;20146;-57
2023/05/19 09:58:25;;;;;;;17.95;12.77;;;13.30;99.90;;;;;;5029778;28;20388;-57
2023/05/19 10:00:53;;;;;;;16.75;11.65;;;13.30;99.90;;;;;;5030477;28;20025;-54
2023/05/19 10:03:24;;;;;;;20.08;12.73;;;13.20;99.90;;;;;;5033576;28;20061;-53
2023/05/19 10:05:51;;;;;;;24.45;13.70;;;13.30;99.90;;;;;;5031201;28;20501;-55
2023/05/19 10:08:17;;;;;;;20.13;12.02;;;13.00;99.90;;;;;;5032199;28;20381;-56
2023/05/19 10:10:47;;;;;;;14.95;11.93;;;13.00;99.90;;;;;;5029471;28;20018;-58
2023/05/19 10:13:13;;;;;;;18.02;14.55;;;13.10;99.90;;;;;;5031956;28;20416;-56
2023/05/19 10:15:42;;;;;;;19.10;12.23;;;13.50;99.90;;;;;;5029896;28;20401;-56
2023/05/19 10:18:09;;;;;;;19.90;11.73;;;13.90;94.60;;;;;;5031867;28;20076;-59
2023/05/19 10:20:36;;;;;;;18.45;11.15;;;14.30;99.90;;;;;;5031335;28;20048;-56
2023/05/19 10:23:02;;;;;;;14.52;11.82;;;14.90;1.00;;;;;;5031504;28;20065;-59
2023/05/19 10:25:30;;;;;;;16.65;11.70;;;15.00;1.00;;;;;;5031002;28;20064;-59
2023/05/19 10:28:17;;;;;;;18.13;12.25;;;14.80;99.90;;;;;;5030944;28;20617;-58
2023/05/19 10:30:46;;;;;;;14.98;12.43;;;15.00;1.00;;;;;;5031213;28;20032;-59
2023/05/19 10:33:16;;;;;;;12.77;10.75;;;15.40;1.00;;;;;;5031437;28;20021;-59
2023/05/19 10:36:12;;;;;;;17.00;11.20;;;15.80;99.90;;;;;;5031612;28;20508;-53
2023/05/19 10:38:55;;;;;;;14.68;9.80;;;16.40;1.00;;;;;;5030862;28;20116;-57
2023/05/19 10:41:29;;;;;;;14.98;10.77;;;16.80;99.90;;;;;;5032031;28;20029;-58
2023/05/19 10:44:03;;;;;;;13.45;10.43;;;17.20;1.00;;;;;;5032161;28;20024;-57
2023/05/19 10:46:29;;;;;;;14.45;10.65;;;17.10;99.90;;;;;;5003722;28;20038;-58
2023/05/19 10:48:55;;;;;;;17.38;10.73;;;17.40;1.00;;;;;;5002689;28;20048;-58
2023/05/19 10:51:30;;;;;;;13.13;10.35;;;17.60;99.90;;;;;;5003202;28;20029;-57
2023/05/19 10:53:57;;;;;;;15.40;10.52;;;17.80;61.00;;;;;;5004541;28;20542;-58
2023/05/19 10:56:35;;;;;;;23.92;13.07;;;18.10;99.90;;;;;;5001530;28;20025;-58
2023/05/19 10:59:03;;;;;;;136.90;40.65;;;18.60;32.20;;;;;;5005845;28;20034;-59
2023/05/19 11:01:34;;;;;;;17.42;9.65;;;18.40;1.00;;;;;;5015881;28;20030;-59
2023/05/19 11:04:10;;;;;;;14.57;9.40;;;18.30;99.90;;;;;;5001156;28;22351;-59
2023/05/19 11:06:37;;;;;;;14.32;8.90;;;18.00;1.00;;;;;;5000384;28;20108;-58
2023/05/19 11:09:13;;;;;;;12.30;9.05;;;17.70;1.00;;;;;;4999969;28;20030;-57
2023/05/19 11:11:52;;;;;;;12.98;9.75;;;17.40;1.00;;;;;;4999285;28;20496;-57
2023/05/19 11:14:21;;;;;;;13.35;8.35;;;17.20;99.90;;;;;;5000735;28;20117;-56
2023/05/19 11:16:48;;;;;;;11.30;8.52;;;17.30;99.90;;;;;;5000194;28;20042;-58
2023/05/19 11:19:24;;;;;;;18.45;9.30;;;17.50;1.00;;;;;;5001477;28;20048;-58
2023/05/19 11:21:54;;;;;;;15.13;8.90;;;17.30;99.90;;;;;;4999898;28;20050;-58
2023/05/19 11:24:36;;;;;;;12.52;9.57;;;17.10;1.00;;;;;;5004081;28;20045;-58
2023/05/19 11:27:30;;;;;;;15.57;9.38;;;17.30;99.90;;;;;;5002510;28;20513;-58
2023/05/19 11:30:00;;;;;;;15.10;9.48;;;17.10;1.00;;;;;;5004012;28;20026;-59
2023/05/19 11:32:29;;;;;;;10.80;9.05;;;17.20;1.00;;;;;;5004599;28;20034;-58
2023/05/19 11:34:56;;;;;;;19.38;9.18;;;17.10;94.10;;;;;;5004757;28;20045;-58
2023/05/19 11:37:22;;;;;;;14.98;8.23;;;17.40;1.00;;;;;;5003899;28;20036;-57
2023/05/19 11:39:48;;;;;;;14.18;8.20;;;18.10;1.00;;;;;;5004189;28;20056;-58
2023/05/19 11:42:15;;;;;;;15.20;8.88;;;18.30;52.00;;;;;;5003855;28;20029;-58
2023/05/19 11:44:41;;;;;;;11.60;7.78;;;17.90;1.00;;;;;;5009155;28;20017;-58
2023/05/19 11:47:07;;;;;;;16.45;7.68;;;18.60;1.00;;;;;;5005060;28;20401;-58
2023/05/19 11:49:33;;;;;;;10.10;7.95;;;19.00;1.00;;;;;;5009040;28;20053;-58
2023/05/19 11:52:01;;;;;;;10.45;8.13;;;19.30;99.90;;;;;;5006211;28;20026;-55
2023/05/19 11:54:31;;;;;;;11.55;7.72;;;19.10;99.90;;;;;;5007520;28;20095;-58
2023/05/19 11:57:00;;;;;;;11.77;7.50;;;19.70;99.90;;;;;;5005821;28;20125;-56
2023/05/19 11:59:34;;;;;;;14.85;7.38;;;20.20;1.00;;;;;;5006260;28;20026;-59
2023/05/19 12:02:02;;;;;;;14.18;7.30;;;20.10;1.00;;;;;;5008766;28;20037;-58
2023/05/19 12:04:31;;;;;;;15.93;7.28;;;20.50;1.00;;;;;;5004738;28;20045;-58
2023/05/19 12:06:57;;;;;;;13.90;7.30;;;21.10;99.90;;;;;;5006162;28;20045;-58
2023/05/19 12:09:23;;;;;;;16.10;7.38;;;21.40;99.90;;;;;;5004935;28;20323;-59
2023/05/19 12:11:51;;;;;;;12.30;7.65;;;22.00;99.90;;;;;;5006772;28;20386;-59
2023/05/19 12:14:17;;;;;;;10.68;6.30;;;21.20;99.90;;;;;;5006104;28;20030;-58
2023/05/19 12:16:43;;;;;;;8.07;6.15;;;21.30;99.90;;;;;;5003881;28;20049;-59
2023/05/19 12:19:09;;;;;;;9.13;6.28;;;22.40;99.90;;;;;;5003184;28;20026;-59
2023/05/19 12:21:35;;;;;;;10.57;6.72;;;22.50;99.90;;;;;;5001275;28;20069;-59
2023/05/19 12:24:00;;;;;;;16.55;6.75;;;24.00;82.30;;;;;;5004092;28;20029;-59
2023/05/19 12:26:26;;;;;;;12.95;6.50;;;24.30;1.00;;;;;;5003664;28;20034;-59
2023/05/19 12:28:52;;;;;;;9.23;6.03;;;23.40;1.00;;;;;;5003736;28;20034;-59
2023/05/19 12:31:22;;;;;;;7.78;5.88;;;23.40;1.00;;;;;;5003357;28;20025;-59
2023/05/19 12:33:51;;;;;;;6.55;4.88;;;23.90;1.00;;;;;;5014999;28;20021;-59
2023/05/19 12:36:17;;;;;;;11.77;4.47;;;24.40;1.00;;;;;;5032780;28;20138;-59
2023/05/19 12:38:44;;;;;;;9.93;5.13;;;25.20;1.00;;;;;;5033399;28;20065;-59
2023/05/19 12:41:13;;;;;;;6.53;5.30;;;24.50;1.00;;;;;;5033655;28;20480;-58